Time;durP1;ratioP1;P1;durP2;ratioP2;P2;SDS_P1;SDS_P2;PMS_P1;PMS_P2;Temp;Humidity;BMP_temperature;BMP_pressure;BME280_temperature;BME280_humidity;BME280_pressure;Samples;Min_cycle;Max_cycle;Signal;HPM_P1;HPM_P2
2023/04/08 00:01:01;;;;;;;1999.90;999.90;;;7.80;99.90;;;;;;5054265;28;20507;-73
2023/04/08 00:03:27;;;;;;;1999.90;999.90;;;7.80;99.90;;;;;;5038249;28;20500;-82
2023/04/08 00:05:52;;;;;;;1999.90;999.90;;;7.80;99.90;;;;;;5034876;28;20389;-81
2023/04/08 00:08:18;;;;;;;1999.90;999.90;;;7.80;99.90;;;;;;5054940;28;20032;-82
2023/04/08 00:10:44;;;;;;;1999.90;999.90;;;7.80;99.90;;;;;;5054757;28;20095;-73
2023/04/08 00:13:10;;;;;;;1999.90;999.90;;;7.80;99.90;;;;;;5054984;28;20534;-73
2023/04/08 00:15:36;;;;;;;1999.90;999.90;;;7.80;99.90;;;;;;5054704;28;20123;-82
2023/04/08 00:18:01;;;;;;;1999.90;999.90;;;7.70;99.90;;;;;;5054616;28;20395;-82
2023/04/08 00:20:27;;;;;;;1999.90;999.90;;;7.70;99.90;;;;;;5054783;28;20021;-81
2023/04/08 00:22:52;;;;;;;1999.90;999.90;;;7.60;99.90;;;;;;5054549;28;20028;-73
2023/04/08 00:25:18;;;;;;;1999.90;999.90;;;7.60;99.90;;;;;;5054265;28;20102;-73
2023/04/08 00:27:44;;;;;;;1999.90;999.90;;;7.60;99.90;;;;;;5054743;28;20056;-73
2023/04/08 00:30:10;;;;;;;1999.90;999.90;;;7.60;99.90;;;;;;5054696;28;20021;-82
2023/04/08 00:32:36;;;;;;;1999.90;999.90;;;7.50;99.90;;;;;;5054370;28;20036;-82
2023/04/08 00:35:02;;;;;;;1999.90;999.90;;;7.50;99.90;;;;;;5054479;28;20021;-82
2023/04/08 00:37:27;;;;;;;1999.90;999.90;;;7.50;99.90;;;;;;5054256;28;20028;-73
2023/04/08 00:39:53;;;;;;;1999.90;999.90;;;7.50;99.90;;;;;;5053938;28;20553;-73
2023/04/08 00:42:22;;;;;;;1999.90;999.90;;;7.50;99.90;;;;;;5054148;28;20100;-82
2023/04/08 00:44:47;;;;;;;1999.90;999.90;;;7.40;99.90;;;;;;5054224;28;20027;-81
2023/04/08 00:47:14;;;;;;;1999.90;999.90;;;7.40;99.90;;;;;;5054220;28;20108;-82
2023/04/08 00:49:40;;;;;;;1999.90;999.90;;;7.40;99.90;;;;;;5054064;28;20381;-73
2023/04/08 00:52:06;;;;;;;1999.90;999.90;;;7.30;99.90;;;;;;5053682;28;20025;-72
2023/04/08 00:54:31;;;;;;;1999.90;999.90;;;7.30;99.90;;;;;;5053899;28;20031;-82
2023/04/08 00:57:00;;;;;;;1999.90;999.90;;;7.30;99.90;;;;;;5054055;28;20021;-82
2023/04/08 00:59:28;;;;;;;1999.90;999.90;;;7.30;99.90;;;;;;5054022;28;20057;-82
2023/04/08 01:02:14;;;;;;;1999.90;999.90;;;7.30;99.90;;;;;;5049268;28;20105;-72
2023/04/08 01:05:05;;;;;;;1999.90;999.90;;;7.30;99.90;;;;;;5033773;28;20384;-73
2023/04/08 01:07:47;;;;;;;1999.90;999.90;;;7.30;99.90;;;;;;5041560;28;20487;-82
2023/04/08 01:10:28;;;;;;;1999.90;999.90;;;7.30;99.90;;;;;;5053511;28;20025;-82
2023/04/08 01:12:56;;;;;;;1999.90;999.90;;;7.30;99.90;;;;;;5053655;28;20040;-82
2023/04/08 01:15:25;;;;;;;1999.90;999.90;;;7.30;99.90;;;;;;5053732;28;20434;-73
2023/04/08 01:17:54;;;;;;;1999.90;999.90;;;7.40;99.90;;;;;;5052697;28;20021;-73
2023/04/08 01:20:21;;;;;;;1999.90;999.90;;;7.40;99.90;;;;;;5053959;28;20029;-82
2023/04/08 01:23:15;;;;;;;1999.90;999.90;;;7.40;99.90;;;;;;5053257;28;20028;-73
2023/04/08 01:25:54;;;;;;;1999.90;999.90;;;7.40;99.90;;;;;;5053898;28;20051;-82
2023/04/08 01:28:22;;;;;;;1999.90;999.90;;;7.40;99.90;;;;;;5053233;28;20021;-73
2023/04/08 01:30:49;;;;;;;1999.90;999.90;;;7.40;99.90;;;;;;5053373;28;20025;-73
2023/04/08 01:33:17;;;;;;;1999.90;999.90;;;7.40;99.90;;;;;;5053269;28;20100;-82
2023/04/08 01:35:44;;;;;;;1999.90;999.90;;;7.40;99.90;;;;;;5052923;28;20399;-73
2023/04/08 01:38:14;;;;;;;1999.90;999.90;;;7.30;99.90;;;;;;5053121;28;20511;-82
2023/04/08 01:40:41;;;;;;;1999.90;999.90;;;7.30;99.90;;;;;;5053255;28;20033;-73
2023/04/08 01:43:08;;;;;;;1999.90;999.90;;;7.30;99.90;;;;;;5053000;28;20032;-73
2023/04/08 01:45:34;;;;;;;1999.90;999.90;;;7.20;99.90;;;;;;5053052;28;20040;-73
2023/04/08 01:48:01;;;;;;;1999.90;999.90;;;7.20;99.90;;;;;;5053209;28;20021;-81
2023/04/08 01:50:27;;;;;;;1999.90;999.90;;;7.20;99.90;;;;;;5052964;28;20480;-73
2023/04/08 01:52:54;;;;;;;1999.90;999.90;;;7.20;99.90;;;;;;5053104;28;20021;-81
2023/04/08 01:55:21;;;;;;;1999.90;999.90;;;7.10;99.90;;;;;;5052776;28;20108;-73
2023/04/08 01:57:51;;;;;;;1999.90;999.90;;;7.10;99.90;;;;;;5052823;28;20033;-72
2023/04/08 02:00:25;;;;;;;1999.90;999.90;;;7.00;99.90;;;;;;5052641;28;20026;-72
2023/04/08 02:02:52;;;;;;;1999.90;999.90;;;7.10;99.90;;;;;;5040581;28;20083;-82
2023/04/08 02:05:18;;;;;;;1999.90;999.90;;;7.00;99.90;;;;;;5032867;28;20366;-72
2023/04/08 02:07:45;;;;;;;1999.90;999.90;;;7.00;99.90;;;;;;5042509;28;20021;-73
2023/04/08 02:10:11;;;;;;;1999.90;999.90;;;7.00;99.90;;;;;;5052836;28;20021;-72
2023/04/08 02:12:37;;;;;;;1999.90;999.90;;;7.00;99.90;;;;;;5052964;28;20067;-82
2023/04/08 02:15:03;;;;;;;1999.90;999.90;;;6.90;99.90;;;;;;5052969;28;20029;-81
2023/04/08 02:17:45;;;;;;;1999.90;999.90;;;6.90;99.90;;;;;;5052904;28;20045;-82
2023/04/08 02:20:36;;;;;;;1999.90;999.90;;;6.80;99.90;;;;;;5053177;28;20535;-73
2023/04/08 02:23:19;;;;;;;1999.90;999.90;;;6.80;99.90;;;;;;5052640;28;20108;-73
2023/04/08 02:25:47;;;;;;;1999.90;999.90;;;6.70;99.90;;;;;;5053275;28;20104;-81
2023/04/08 02:28:14;;;;;;;1999.90;999.90;;;6.60;99.90;;;;;;5052637;28;20032;-73
2023/04/08 02:30:47;;;;;;;1999.90;999.90;;;6.60;99.90;;;;;;5052849;28;20027;-82
2023/04/08 02:33:14;;;;;;;1999.90;999.90;;;6.50;99.90;;;;;;5052882;28;20021;-73
2023/04/08 02:35:40;;;;;;;1999.90;999.90;;;6.50;99.90;;;;;;5052805;28;20021;-77
2023/04/08 02:38:07;;;;;;;1999.90;999.90;;;6.50;99.90;;;;;;5051843;28;20044;-80
2023/04/08 02:40:34;;;;;;;1999.90;999.90;;;6.50;99.90;;;;;;5052057;28;20087;-82
2023/04/08 02:43:00;;;;;;;1999.90;999.90;;;6.50;99.90;;;;;;5052456;28;20032;-81
2023/04/08 02:45:40;;;;;;;1999.90;999.90;;;6.50;99.90;;;;;;5052316;28;20037;-82
2023/04/08 02:48:06;;;;;;;1999.90;999.90;;;6.50;99.90;;;;;;5052550;28;20025;-73
2023/04/08 02:50:32;;;;;;;1999.90;999.90;;;6.60;99.90;;;;;;5052303;28;20036;-81
2023/04/08 02:52:57;;;;;;;1999.90;999.90;;;6.60;99.90;;;;;;5052464;28;20014;-81
2023/04/08 02:55:23;;;;;;;1999.90;999.90;;;6.60;99.90;;;;;;5052547;28;20029;-73
2023/04/08 02:57:49;;;;;;;1999.90;999.90;;;6.50;99.90;;;;;;5052471;28;20108;-81
2023/04/08 03:00:15;;;;;;;1999.90;999.90;;;6.60;99.90;;;;;;5052296;28;20025;-73
2023/04/08 03:02:41;;;;;;;1999.90;999.90;;;6.60;99.90;;;;;;5042300;28;20032;-73
2023/04/08 03:05:08;;;;;;;1999.90;999.90;;;6.50;99.90;;;;;;5035908;28;20026;-80
2023/04/08 03:07:34;;;;;;;1999.90;999.90;;;6.50;99.90;;;;;;5044107;28;20021;-82
2023/04/08 03:09:59;;;;;;;1999.90;999.90;;;6.50;99.90;;;;;;5056090;28;20464;-81
2023/04/08 03:12:28;;;;;;;1999.90;999.90;;;6.40;99.90;;;;;;5056272;28;20072;-73
2023/04/08 03:14:54;;;;;;;1999.90;999.90;;;6.30;99.90;;;;;;5055884;28;20025;-73
2023/04/08 03:17:20;;;;;;;1999.90;999.90;;;6.20;99.90;;;;;;5055915;28;20086;-82
2023/04/08 03:19:46;;;;;;;1999.90;999.90;;;6.20;99.90;;;;;;5055934;28;20025;-82
2023/04/08 03:22:12;;;;;;;1999.90;999.90;;;6.10;99.90;;;;;;5055602;28;20395;-81
2023/04/08 03:24:38;;;;;;;1999.90;999.90;;;6.00;99.90;;;;;;5055877;28;20028;-82
2023/04/08 03:27:04;;;;;;;1999.90;999.90;;;5.90;99.90;;;;;;5054405;28;20113;-73
2023/04/08 03:29:30;;;;;;;1999.90;999.90;;;5.90;99.90;;;;;;5055832;28;20092;-73
2023/04/08 03:31:55;;;;;;;1999.90;999.90;;;5.90;99.90;;;;;;5055761;28;20565;-81
2023/04/08 03:34:21;;;;;;;1999.90;999.90;;;5.90;99.90;;;;;;5055363;28;20017;-81
2023/04/08 03:36:46;;;;;;;1999.90;999.90;;;5.90;99.90;;;;;;5056046;28;20029;-81
2023/04/08 03:39:12;;;;;;;1999.90;999.90;;;5.80;99.90;;;;;;5055573;28;20032;-81
2023/04/08 03:41:37;;;;;;;1999.90;999.90;;;5.80;99.90;;;;;;5055776;28;20025;-72
2023/04/08 03:44:03;;;;;;;1999.90;999.90;;;5.80;99.90;;;;;;5055189;28;20032;-73
2023/04/08 03:46:29;;;;;;;1999.90;999.90;;;5.70;99.90;;;;;;5053930;28;20088;-82
2023/04/08 03:48:54;;;;;;;1999.90;999.90;;;5.70;99.90;;;;;;5055275;28;20443;-73
2023/04/08 03:51:20;;;;;;;1999.90;999.90;;;5.70;99.90;;;;;;5055367;28;20021;-73
2023/04/08 03:53:47;;;;;;;1999.90;999.90;;;5.70;99.90;;;;;;5055069;28;20391;-72
2023/04/08 03:56:12;;;;;;;1999.90;999.90;;;5.60;99.90;;;;;;5055140;28;20563;-82
2023/04/08 03:58:38;;;;;;;1999.90;999.90;;;5.60;99.90;;;;;;5054955;28;20117;-73
2023/04/08 04:01:04;;;;;;;1999.90;999.90;;;5.50;99.90;;;;;;5055177;28;20036;-81
2023/04/08 04:03:30;;;;;;;1999.90;999.90;;;5.50;99.90;;;;;;5053962;28;20021;-73
2023/04/08 04:05:56;;;;;;;1999.90;999.90;;;5.40;99.90;;;;;;5054930;28;20032;-81
2023/04/08 04:08:21;;;;;;;1999.90;999.90;;;5.40;99.90;;;;;;5055060;28;20021;-73
2023/04/08 04:10:47;;;;;;;1999.90;999.90;;;5.40;99.90;;;;;;5054921;28;20475;-81
2023/04/08 04:13:12;;;;;;;1999.90;999.90;;;5.40;99.90;;;;;;5054632;28;20028;-81
2023/04/08 04:15:39;;;;;;;1999.90;999.90;;;5.40;99.90;;;;;;5054629;28;20025;-81
2023/04/08 04:18:05;;;;;;;1999.90;999.90;;;5.40;99.90;;;;;;5053985;28;20017;-73
2023/04/08 04:20:31;;;;;;;1999.90;999.90;;;5.30;99.90;;;;;;5054838;28;20106;-73
2023/04/08 04:22:57;;;;;;;1999.90;999.90;;;5.30;99.90;;;;;;5054634;28;20076;-82
2023/04/08 04:25:22;;;;;;;1999.90;999.90;;;5.20;99.90;;;;;;5054336;28;20036;-72
2023/04/08 04:27:48;;;;;;;1999.90;999.90;;;5.20;99.90;;;;;;5054532;28;20032;-73
2023/04/08 04:30:14;;;;;;;1999.90;999.90;;;5.20;99.90;;;;;;5054701;28;20028;-73
2023/04/08 04:32:43;;;;;;;1999.90;999.90;;;5.10;99.90;;;;;;5054468;28;20045;-73
2023/04/08 04:35:09;;;;;;;1999.90;999.90;;;5.10;99.90;;;;;;5054269;28;20025;-81
2023/04/08 04:37:35;;;;;;;1999.90;999.90;;;5.10;99.90;;;;;;5054155;28;20494;-82
2023/04/08 04:40:01;;;;;;;1999.90;999.90;;;5.00;99.90;;;;;;5054167;28;20032;-81
2023/04/08 04:42:27;;;;;;;1999.90;999.90;;;5.00;99.90;;;;;;5054773;28;20029;-81
2023/04/08 04:44:53;;;;;;;1999.90;999.90;;;5.00;99.90;;;;;;5054327;28;20468;-73
2023/04/08 04:47:19;;;;;;;1999.90;999.90;;;5.00;99.90;;;;;;5054275;28;20059;-72
2023/04/08 04:49:44;;;;;;;1999.90;999.90;;;5.00;99.90;;;;;;5054113;28;20428;-82
2023/04/08 04:52:10;;;;;;;1999.90;999.90;;;5.00;99.90;;;;;;5052527;28;20025;-81
2023/04/08 04:54:36;;;;;;;1999.90;999.90;;;5.00;99.90;;;;;;5053840;28;20037;-81
2023/04/08 04:57:02;;;;;;;1999.90;999.90;;;5.10;99.90;;;;;;5054515;28;20025;-72
2023/04/08 04:59:27;;;;;;;1999.90;999.90;;;5.10;99.90;;;;;;5053686;28;20029;-73
2023/04/08 05:01:56;;;;;;;1999.90;999.90;;;5.00;99.90;;;;;;5050065;28;20092;-81
2023/04/08 05:04:22;;;;;;;1999.90;999.90;;;5.00;99.90;;;;;;5033203;28;20036;-82
2023/04/08 05:06:48;;;;;;;1999.90;999.90;;;5.00;99.90;;;;;;5035472;28;20051;-81
2023/04/08 05:09:13;;;;;;;1999.90;999.90;;;5.00;99.90;;;;;;5052397;28;20480;-73
2023/04/08 05:11:39;;;;;;;1999.90;999.90;;;5.00;99.90;;;;;;5053816;28;20036;-73
2023/04/08 05:14:05;;;;;;;1999.90;999.90;;;5.00;99.90;;;;;;5053823;28;20045;-81
2023/04/08 05:16:31;;;;;;;1999.90;999.90;;;4.90;99.90;;;;;;5053878;28;20107;-81
2023/04/08 05:18:57;;;;;;;1999.90;999.90;;;4.90;99.90;;;;;;5053187;28;20083;-81
2023/04/08 05:21:23;;;;;;;1999.90;999.90;;;4.80;99.90;;;;;;5053589;28;20031;-81
2023/04/08 05:23:51;;;;;;;1999.90;999.90;;;4.80;99.90;;;;;;5053331;28;20094;-73
2023/04/08 05:26:23;;;;;;;1999.90;999.90;;;4.70;99.90;;;;;;5052507;28;20021;-73
2023/04/08 05:28:50;;;;;;;1999.90;999.90;;;4.70;99.90;;;;;;5053654;28;20070;-82
2023/04/08 05:31:16;;;;;;;1999.90;999.90;;;4.70;99.90;;;;;;5053314;28;20027;-81
2023/04/08 05:33:42;;;;;;;1999.90;999.90;;;4.80;99.90;;;;;;5053509;28;20028;-81
2023/04/08 05:36:09;;;;;;;1999.90;999.90;;;4.80;99.90;;;;;;5043695;28;20033;-81
2023/04/08 05:38:35;;;;;;;1999.90;999.90;;;4.80;99.90;;;;;;5033250;28;20032;-73
2023/04/08 05:41:01;;;;;;;1999.90;999.90;;;4.90;99.90;;;;;;5033352;28;20026;-81
2023/04/08 05:43:26;;;;;;;1999.90;999.90;;;4.90;99.90;;;;;;5047454;28;20021;-81
2023/04/08 05:45:52;;;;;;;1999.90;999.90;;;5.00;99.90;;;;;;5052945;28;20480;-81
2023/04/08 05:48:18;;;;;;;1999.90;999.90;;;5.00;99.90;;;;;;5053506;28;20047;-73
2023/04/08 05:50:43;;;;;;;1999.90;999.90;;;5.00;99.90;;;;;;5052984;28;20025;-73
2023/04/08 05:53:09;;;;;;;1999.90;999.90;;;5.00;99.90;;;;;;5053405;28;20082;-81
2023/04/08 05:55:35;;;;;;;1999.90;999.90;;;5.10;99.90;;;;;;5053010;28;20036;-81
2023/04/08 05:58:00;;;;;;;1999.90;999.90;;;5.10;99.90;;;;;;5053434;28;20029;-81
2023/04/08 06:00:26;;;;;;;1999.90;999.90;;;5.20;99.90;;;;;;5052582;28;20037;-81
2023/04/08 06:02:52;;;;;;;1999.90;999.90;;;5.30;99.90;;;;;;5041210;28;20036;-73
2023/04/08 06:05:18;;;;;;;1999.90;999.90;;;5.40;99.90;;;;;;5032228;28;20034;-73
2023/04/08 06:07:44;;;;;;;1999.90;999.90;;;5.40;99.90;;;;;;5042195;28;20096;-82
2023/04/08 06:10:10;;;;;;;1999.90;999.90;;;5.40;99.90;;;;;;5053048;28;20029;-81
2023/04/08 06:12:38;;;;;;;1999.90;999.90;;;5.40;99.90;;;;;;5052873;28;20367;-82
2023/04/08 06:15:05;;;;;;;1999.90;999.90;;;5.40;99.90;;;;;;5052590;28;20025;-73
2023/04/08 06:17:30;;;;;;;1999.90;999.90;;;5.50;99.90;;;;;;5052631;28;20017;-72
2023/04/08 06:19:56;;;;;;;1999.90;999.90;;;5.50;99.90;;;;;;5051642;28;20066;-81
2023/04/08 06:22:22;;;;;;;1999.90;999.90;;;5.50;99.90;;;;;;5052473;28;20156;-81
2023/04/08 06:24:47;;;;;;;1999.90;999.90;;;5.60;99.90;;;;;;5052621;28;20024;-82
2023/04/08 06:27:13;;;;;;;1999.90;999.90;;;5.70;99.90;;;;;;5052702;28;20122;-72
2023/04/08 06:29:39;;;;;;;1999.90;999.90;;;5.80;99.90;;;;;;5052578;28;20025;-72
2023/04/08 06:32:05;;;;;;;1999.90;999.90;;;5.90;99.90;;;;;;5052809;28;20101;-81
2023/04/08 06:34:31;;;;;;;1999.90;999.90;;;6.00;99.90;;;;;;5052653;28;20167;-82
2023/04/08 06:36:56;;;;;;;1999.90;999.90;;;6.10;99.90;;;;;;5054151;28;20036;-81
2023/04/08 06:39:22;;;;;;;1999.90;999.90;;;6.20;99.90;;;;;;5056576;28;20028;-81
2023/04/08 06:41:48;;;;;;;1999.90;999.90;;;6.40;99.90;;;;;;5056639;28;20025;-73
2023/04/08 06:44:14;;;;;;;1999.90;999.90;;;6.50;99.90;;;;;;5056563;28;20063;-73
2023/04/08 06:46:40;;;;;;;1999.90;999.90;;;6.70;99.90;;;;;;5056690;28;20434;-82
2023/04/08 06:49:05;;;;;;;1999.90;999.90;;;6.80;99.90;;;;;;5056402;28;20324;-81
2023/04/08 06:51:31;;;;;;;1999.90;999.90;;;6.90;99.90;;;;;;5056618;28;20493;-73
2023/04/08 06:53:57;;;;;;;1999.90;999.90;;;7.10;99.90;;;;;;5056384;28;20037;-81
2023/04/08 06:56:25;;;;;;;1999.90;999.90;;;7.20;99.90;;;;;;5055228;28;20391;-72
2023/04/08 06:58:51;;;;;;;1999.90;999.90;;;7.30;99.90;;;;;;5055977;28;20036;-82
2023/04/08 07:01:17;;;;;;;1999.90;999.90;;;7.40;99.90;;;;;;5056551;28;20033;-81
2023/04/08 07:03:42;;;;;;;1999.90;999.90;;;7.50;99.90;;;;;;5037104;28;20033;-81
2023/04/08 07:06:08;;;;;;;1999.90;999.90;;;7.60;99.90;;;;;;5035930;28;20026;-73
2023/04/08 07:08:35;;;;;;;1999.90;999.90;;;7.70;99.90;;;;;;5052352;28;20029;-73
2023/04/08 07:11:01;;;;;;;1999.90;999.90;;;7.90;99.90;;;;;;5055911;28;20017;-82
2023/04/08 07:13:26;;;;;;;1999.90;999.90;;;8.00;99.90;;;;;;5055821;28;20025;-82
2023/04/08 07:15:52;;;;;;;1999.90;999.90;;;8.10;99.90;;;;;;5055811;28;20047;-81
2023/04/08 07:18:18;;;;;;;1999.90;999.90;;;8.30;99.90;;;;;;5054783;28;20029;-82
2023/04/08 07:20:43;;;;;;;1999.90;999.90;;;8.40;99.90;;;;;;5056446;28;20044;-73
2023/04/08 07:23:09;;;;;;;1999.90;999.90;;;8.50;99.90;;;;;;5055925;28;20029;-73
2023/04/08 07:25:35;;;;;;;1999.90;999.90;;;8.60;99.90;;;;;;5056081;28;20028;-82
2023/04/08 07:28:01;;;;;;;1999.90;999.90;;;8.80;99.90;;;;;;5055284;28;20530;-81
2023/04/08 07:30:26;;;;;;;1999.90;999.90;;;9.00;99.90;;;;;;5055883;28;20051;-81
2023/04/08 07:32:54;;;;;;;1999.90;999.90;;;9.20;99.90;;;;;;5055569;28;20385;-73
2023/04/08 07:35:23;;;;;;;1999.90;999.90;;;9.40;99.90;;;;;;5055543;28;20021;-74
2023/04/08 07:37:50;;;;;;;1999.90;999.90;;;9.60;99.90;;;;;;5055402;28;20036;-74
2023/04/08 07:40:16;;;;;;;1999.90;999.90;;;9.90;99.90;;;;;;5055190;28;20170;-82
2023/04/08 07:42:42;;;;;;;1999.90;999.90;;;10.20;99.90;;;;;;5055401;28;20483;-73
2023/04/08 07:45:08;;;;;;;1999.90;999.90;;;10.40;99.90;;;;;;5055644;28;20029;-73
2023/04/08 07:47:33;;;;;;;1999.90;999.90;;;10.70;99.90;;;;;;5054933;28;20111;-73
2023/04/08 07:49:59;;;;;;;1999.90;999.90;;;10.90;99.90;;;;;;5054248;28;20163;-82
2023/04/08 07:52:25;;;;;;;1999.90;999.90;;;11.10;99.90;;;;;;5055165;28;20498;-82
2023/04/08 07:54:50;;;;;;;1999.90;999.90;;;11.50;99.90;;;;;;5055171;28;20027;-83
2023/04/08 07:57:16;;;;;;;1999.90;999.90;;;13.00;99.90;;;;;;5055432;28;20082;-82
2023/04/08 07:59:41;;;;;;;1999.90;999.90;;;15.60;99.90;;;;;;5054837;28;20021;-74
2023/04/08 08:02:07;;;;;;;1999.90;999.90;;;16.90;99.90;;;;;;5049451;28;20060;-73
2023/04/08 08:04:33;;;;;;;1999.90;999.90;;;17.90;99.90;;;;;;5034258;28;20128;-83
2023/04/08 08:06:58;;;;;;;1999.90;999.90;;;18.20;99.90;;;;;;5038146;28;20028;-82
2023/04/08 08:09:24;;;;;;;1999.90;999.90;;;18.50;99.90;;;;;;5054593;28;20017;-82
2023/04/08 08:11:50;;;;;;;1999.90;999.90;;;18.80;99.90;;;;;;5054941;28;20075;-73
2023/04/08 08:14:15;;;;;;;1999.90;999.90;;;19.20;99.90;;;;;;5054646;28;20048;-73
2023/04/08 08:16:41;;;;;;;1999.90;999.90;;;20.40;99.90;;;;;;5054595;28;20025;-83
2023/04/08 08:19:07;;;;;;;1999.90;999.90;;;20.60;99.90;;;;;;5054922;28;20036;-81
2023/04/08 08:21:36;;;;;;;1999.90;999.90;;;20.80;99.80;;;;;;5055149;28;20432;-75
2023/04/08 08:24:01;;;;;;;1999.90;999.90;;;21.50;99.40;;;;;;5054250;28;20050;-74
2023/04/08 08:26:27;;;;;;;1999.90;999.90;;;21.90;98.80;;;;;;5054855;28;20111;-74
2023/04/08 08:28:53;;;;;;;1999.90;999.90;;;22.00;98.50;;;;;;5054677;28;20035;-84
2023/04/08 08:31:19;;;;;;;1999.90;999.90;;;22.40;97.10;;;;;;5055116;28;20032;-83
2023/04/08 08:33:46;;;;;;;1999.90;999.90;;;22.80;97.50;;;;;;5054689;28;20025;-83
2023/04/08 08:36:12;;;;;;;1999.90;999.90;;;22.70;96.90;;;;;;5053357;28;20145;-84
2023/04/08 08:38:37;;;;;;;1999.90;999.90;;;22.60;96.40;;;;;;5054543;28;20021;-75
2023/04/08 08:41:03;;;;;;;1999.90;999.90;;;23.40;95.60;;;;;;5054339;28;20536;-75
2023/04/08 08:43:32;;;;;;;1999.90;999.90;;;22.90;95.10;;;;;;5053383;28;20079;-84
2023/04/08 08:45:58;;;;;;;1999.90;999.90;;;22.70;95.70;;;;;;5053966;28;20017;-83
2023/04/08 08:48:24;;;;;;;1999.90;999.90;;;23.00;95.40;;;;;;5054502;28;20128;-75
2023/04/08 08:50:50;;;;;;;1999.90;999.90;;;22.60;96.30;;;;;;5054507;28;20033;-75
2023/04/08 08:53:15;;;;;;;1999.90;999.90;;;22.80;97.30;;;;;;5053765;28;20075;-75
2023/04/08 08:55:41;;;;;;;1999.90;999.90;;;23.50;95.60;;;;;;5054306;28;20029;-84
2023/04/08 08:58:07;;;;;;;1999.90;999.90;;;23.00;96.20;;;;;;5054092;28;20055;-83
2023/04/08 09:00:37;;;;;;;1999.90;999.90;;;22.80;96.00;;;;;;5053891;28;20021;-84
2023/04/08 09:03:17;;;;;;;1999.90;999.90;;;22.90;96.00;;;;;;5040650;28;20033;-75
2023/04/08 09:05:56;;;;;;;1999.90;999.90;;;24.00;94.90;;;;;;5033125;28;20033;-75
2023/04/08 09:08:30;;;;;;;1999.90;999.90;;;24.00;94.40;;;;;;5048199;28;20091;-85
2023/04/08 09:11:15;;;;;;;1999.90;999.90;;;24.20;94.20;;;;;;5053923;28;20488;-84
2023/04/08 09:13:42;;;;;;;1999.90;999.90;;;24.20;94.60;;;;;;5053852;28;20503;-84
2023/04/08 09:16:09;;;;;;;1999.90;999.90;;;24.20;93.80;;;;;;5053459;28;20082;-75
2023/04/08 09:18:36;;;;;;;1999.90;999.90;;;24.60;94.20;;;;;;5053440;28;20033;-75
2023/04/08 09:21:03;;;;;;;1999.90;999.90;;;24.60;93.00;;;;;;5053654;28;20044;-84
2023/04/08 09:23:43;;;;;;;1999.90;999.90;;;25.20;93.50;;;;;;5053467;28;20114;-85
2023/04/08 09:26:23;;;;;;;1999.90;999.90;;;25.00;93.20;;;;;;5053449;28;20029;-75
2023/04/08 09:29:08;;;;;;;1999.90;999.90;;;25.30;92.90;;;;;;5063424;28;20040;-76
2023/04/08 09:31:37;;;;;;;1999.90;999.90;;;24.70;93.40;;;;;;5059092;28;20029;-75
2023/04/08 09:34:10;;;;;;;1999.90;999.90;;;24.20;93.70;;;;;;5051845;28;20093;-84
2023/04/08 09:36:36;;;;;;;1999.90;999.90;;;23.70;94.80;;;;;;5053716;28;20468;-83
2023/04/08 09:39:02;;;;;;;1999.90;999.90;;;24.00;94.10;;;;;;5053061;28;20021;-84
2023/04/08 09:41:32;;;;;;;1999.90;999.90;;;24.40;94.40;;;;;;5053316;28;20025;-85
2023/04/08 09:44:01;;;;;;;1999.90;999.90;;;24.50;93.00;;;;;;5052958;28;20028;-74
2023/04/08 09:46:53;;;;;;;1999.90;999.90;;;24.40;94.10;;;;;;5052936;28;20059;-75
2023/04/08 09:49:37;;;;;;;1999.90;999.90;;;24.20;93.30;;;;;;5049696;28;20053;-85
2023/04/08 09:52:07;;;;;;;1999.90;999.90;;;24.10;93.40;;;;;;5053462;28;20023;-85
2023/04/08 09:54:38;;;;;;;1999.90;999.90;;;24.40;94.10;;;;;;5052979;28;20375;-85
2023/04/08 09:57:10;;;;;;;1999.90;999.90;;;24.80;92.40;;;;;;5051785;28;20033;-75
2023/04/08 09:59:37;;;;;;;1999.90;999.90;;;24.50;94.00;;;;;;5052826;28;20103;-75
2023/04/08 10:02:08;;;;;;;1999.90;999.90;;;24.30;94.00;;;;;;5046462;28;20029;-75
2023/04/08 10:04:39;;;;;;;1999.90;999.90;;;24.30;93.20;;;;;;5030910;28;20025;-85
2023/04/08 10:07:07;;;;;;;1999.90;999.90;;;24.30;93.80;;;;;;5037192;28;20497;-85
2023/04/08 10:09:33;;;;;;;1999.90;999.90;;;24.20;93.40;;;;;;5052917;28;20088;-75
2023/04/08 10:12:00;;;;;;;1999.90;999.90;;;23.90;93.50;;;;;;5056308;28;20510;-75
2023/04/08 10:14:27;;;;;;;1999.90;999.90;;;24.30;93.60;;;;;;5059654;28;20069;-85
2023/04/08 10:17:30;;;;;;;1999.90;999.90;;;23.90;93.30;;;;;;5057510;28;20028;-84
2023/04/08 10:19:57;;;;;;;1999.90;999.90;;;23.00;95.30;;;;;;5059350;28;20104;-84
2023/04/08 10:22:31;;;;;;;1999.90;999.90;;;21.80;95.70;;;;;;5059650;28;20021;-75
2023/04/08 10:25:18;;;;;;;1999.90;999.90;;;20.70;98.10;;;;;;5059195;28;20056;-75
2023/04/08 10:27:44;;;;;;;1999.90;999.90;;;20.10;99.90;;;;;;5059692;28;20036;-84
2023/04/08 10:30:25;;;;;;;1999.90;999.90;;;20.00;99.90;;;;;;5059694;28;20454;-74
2023/04/08 10:32:51;;;;;;;1999.90;999.90;;;20.00;99.90;;;;;;5059753;28;20029;-84
2023/04/08 10:35:20;;;;;;;1999.90;999.90;;;19.90;99.60;;;;;;5058958;28;20029;-75
2023/04/08 10:37:46;;;;;;;1999.90;999.90;;;19.40;99.90;;;;;;5059073;28;20434;-75
2023/04/08 10:40:18;;;;;;;1999.90;999.90;;;19.30;99.50;;;;;;5059172;28;20032;-84
2023/04/08 10:42:44;;;;;;;;;;;19.20;99.90;;;;;;5059833;28;20029;-84
2023/04/08 10:45:09;;;;;;;1999.90;999.90;;;19.50;99.90;;;;;;5059344;28;20378;-84
2023/04/08 10:47:35;;;;;;;1999.90;999.90;;;19.40;99.90;;;;;;5059447;28;20079;-75
2023/04/08 10:50:11;;;;;;;1999.90;999.90;;;19.20;99.90;;;;;;5058879;28;20049;-74
2023/04/08 10:52:52;;;;;;;1999.90;999.90;;;19.00;99.90;;;;;;5059343;28;20021;-74
2023/04/08 10:55:28;;;;;;;1999.90;999.90;;;19.00;99.90;;;;;;5059270;28;20439;-84
2023/04/08 10:57:54;;;;;;;1999.90;999.90;;;19.10;99.90;;;;;;5059253;28;20017;-74
2023/04/08 11:00:32;;;;;;;1999.90;999.90;;;19.40;99.90;;;;;;5059557;28;20431;-83
2023/04/08 11:03:04;;;;;;;1999.90;999.90;;;19.40;99.90;;;;;;5046466;28;20045;-74
2023/04/08 11:05:31;;;;;;;1999.90;999.90;;;19.30;99.90;;;;;;5038257;28;20418;-83
2023/04/08 11:07:58;;;;;;;1999.90;999.90;;;19.30;99.90;;;;;;5049886;28;20031;-82
2023/04/08 11:10:24;;;;;;;1999.90;999.90;;;19.10;99.90;;;;;;5058931;28;20021;-83
2023/04/08 11:12:50;;;;;;;1999.90;999.90;;;18.80;99.90;;;;;;5059335;28;20083;-83
2023/04/08 11:15:17;;;;;;;1999.90;999.90;;;18.80;99.90;;;;;;5059007;28;20400;-74
2023/04/08 11:17:43;;;;;;;1999.90;999.90;;;19.10;99.90;;;;;;5059131;28;20108;-82
2023/04/08 11:20:09;;;;;;;1999.90;999.90;;;19.20;99.90;;;;;;5058948;28;20025;-83
2023/04/08 11:22:35;;;;;;;1999.90;999.90;;;19.10;99.90;;;;;;5057332;28;20029;-83
2023/04/08 11:25:01;;;;;;;1999.90;999.90;;;19.20;99.70;;;;;;5055218;28;20025;-83
2023/04/08 11:27:27;;;;;;;1999.90;999.90;;;19.30;99.80;;;;;;5054251;28;20033;-73
2023/04/08 11:29:55;;;;;;;1999.90;999.90;;;19.30;99.90;;;;;;5056133;28;20021;-82
2023/04/08 11:32:22;;;;;;;1999.90;999.90;;;19.30;98.90;;;;;;5055864;28;20025;-82
2023/04/08 11:34:48;;;;;;;1999.90;999.90;;;19.50;98.90;;;;;;5055824;28;20491;-82
2023/04/08 11:37:14;;;;;;;1999.90;999.90;;;19.50;99.30;;;;;;5055824;28;20037;-83
2023/04/08 11:39:42;;;;;;;1999.90;999.90;;;19.30;98.60;;;;;;5055725;28;20052;-73
2023/04/08 11:42:08;;;;;;;1999.90;999.90;;;19.30;99.40;;;;;;5055280;28;20033;-82
2023/04/08 11:44:34;;;;;;;1999.90;999.90;;;19.30;99.00;;;;;;5055963;28;20031;-83
2023/04/08 11:47:01;;;;;;;1999.90;999.90;;;19.00;99.90;;;;;;5055222;28;20163;-83
2023/04/08 11:49:27;;;;;;;1999.90;999.90;;;19.30;99.90;;;;;;5053775;28;20053;-83
2023/04/08 11:51:59;;;;;;;1999.90;999.90;;;19.60;99.90;;;;;;5055233;28;20449;-74
2023/04/08 11:54:26;;;;;;;1999.90;999.90;;;19.60;99.60;;;;;;5054995;28;20028;-73
2023/04/08 11:56:52;;;;;;;1999.90;999.90;;;19.60;99.90;;;;;;5054888;28;20571;-83
2023/04/08 11:59:18;;;;;;;1999.90;999.90;;;19.60;99.90;;;;;;5055285;28;20021;-83
2023/04/08 12:01:43;;;;;;;1999.90;999.90;;;19.40;99.90;;;;;;5052783;28;20474;-83
2023/04/08 12:04:10;;;;;;;1999.90;999.90;;;19.10;99.80;;;;;;5049787;28;20040;-83
2023/04/08 12:06:35;;;;;;;1999.90;999.90;;;18.90;99.50;;;;;;5034218;28;20036;-73
2023/04/08 12:09:01;;;;;;;1999.90;999.90;;;19.30;99.90;;;;;;5053612;28;20025;-84